METAR Data
IDs: Format: Raw Decoded Include TAF

Data at: 0231 UTC 19 Oct 2021

KPBF 190153Z AUTO 00000KT 10SM CLR 14/09 A3013 RMK AO2 SLP201 T01390089
KPBF 190053Z AUTO 00000KT 10SM CLR 15/10 A3012 RMK AO2 SLP197 T01500100
KPBF 182353Z AUTO 13003KT 10SM CLR 17/09 A3011 RMK AO2 SLP194 T01670089 10233 20167 56009
KPBF 182253Z AUTO 13004KT 10SM CLR 22/07 A3011 RMK AO2 SLP196 T02170072
KPBF 182153Z AUTO 20005KT 10SM CLR 23/07 A3012 RMK AO2 SLP199 T02280067
KPBF 182053Z AUTO VRB03KT 10SM CLR 23/06 A3013 RMK AO2 SLP203 T02330061 56026
KPBF 181953Z AUTO 10SM CLR 22/06 A3015 RMK AO2 SLP208 T02220056
KPBF 181853Z AUTO VRB04KT 10SM CLR 23/06 A3018 RMK AO2 SLP218 T02280056
KPBF 181753Z AUTO 00000KT 10SM CLR 22/05 A3021 RMK AO2 SLP229 T02170050 10222 20078 58015
KPBF 181653Z AUTO 18007KT 140V200 10SM CLR 20/06 A3023 RMK AO2 SLP237 T02000056
KPBF 181553Z AUTO 15005KT 10SM CLR 20/06 A3025 RMK AO2 SLP242 T02000061
KPBF 181453Z AUTO 17005KT 10SM CLR 17/07 A3025 RMK AO2 SLP243 T01670072 51014
KPBF 181353Z AUTO 00000KT 10SM CLR 14/08 A3024 RMK AO2 SLP240 T01390078
KPBF 181253Z AUTO 00000KT 10SM CLR 09/07 A3022 RMK AO2 SLP234 T00940067
KPBF 181153Z AUTO 00000KT 10SM CLR 08/06 A3021 RMK AO2 SLP230 T00780056 10106 20078 50005
KPBF 181053Z AUTO 00000KT 10SM CLR 09/06 A3021 RMK AO2 SLP230 T00890061
KPBF 180953Z AUTO 00000KT 10SM CLR 09/06 A3020 RMK AO2 SLP225 T00890061
KPBF 180853Z AUTO 00000KT 10SM CLR 09/06 A3020 RMK AO2 SLP224 T00940061 56005
KPBF 180753Z AUTO 00000KT 10SM CLR 09/07 A3020 RMK AO2 SLP224 T00940067
KPBF 180653Z AUTO 00000KT 10SM CLR 10/07 A3020 RMK AO2 SLP226 T01000072
KPBF 180553Z AUTO 00000KT 10SM CLR 10/08 A3021 RMK AO2 SLP229 T01000078 10172 20100 402330072 58006
KPBF 180453Z AUTO 00000KT 10SM CLR 11/08 A3022 RMK AO2 SLP232 T01060083
KPBF 180353Z AUTO 00000KT 10SM CLR 12/08 A3024 RMK AO2 SLP237 T01170083
KPBF 180253Z AUTO 00000KT 10SM CLR 12/09 A3023 RMK AO2 SLP235 T01220089 52005
KPBF 180153Z AUTO 00000KT 10SM CLR 14/08 A3022 RMK AO2 SLP233 T01390083
KPBF 180053Z AUTO 18003KT 10SM CLR 14/09 A3022 RMK AO2 SLP233 T01440089
KPBF 172353Z AUTO 00000KT 10SM CLR 18/08 A3021 RMK AO2 SLP230 T01780078 10233 20178 56006
KPBF 172253Z AUTO 00000KT 10SM CLR 22/03 A3021 RMK AO2 SLP230 T02170033
KPBF 172153Z AUTO 06003KT 10SM CLR 23/03 A3022 RMK AO2 SLP231 T02280028
KPBF 172053Z AUTO 00000KT 10SM CLR 23/02 A3023 RMK AO2 SLP236 T02280022 56026
KPBF 171953Z AUTO 05007KT 10SM CLR 23/03 A3025 RMK AO2 SLP241 T02280028
KPBF 171853Z AUTO 08008KT 020V110 10SM CLR 22/03 A3027 RMK AO2 SLP249 T02220033
KPBF 171753Z AUTO 11004KT 10SM CLR 21/03 A3031 RMK AO2 SLP263 T02110033 10217 20072 58009
KPBF 171653Z AUTO VRB04KT 10SM CLR 20/04 A3033 RMK AO2 SLP271 T02000039
KPBF 171553Z AUTO 10SM CLR 18/05 A3034 RMK AO2 SLP274 T01780050
KPBF 171453Z AUTO 03003KT 10SM CLR 16/06 A3034 RMK AO2 SLP272 T01610061 53008